createdAt,value
2018-12-07T00:00:42.990Z,95690.16
2018-12-07T00:03:10.082Z,95669.98
2018-12-07T00:05:36.728Z,95686.67
2018-12-07T00:08:03.372Z,95692.63
2018-12-07T00:10:30.084Z,95703.59
2018-12-07T00:12:56.742Z,95694.37
2018-12-07T00:15:23.387Z,95685.29
2018-12-07T00:17:50.026Z,95683.01
2018-12-07T00:20:16.736Z,95679.09
2018-12-07T00:22:43.388Z,95681.25
2018-12-07T00:25:10.035Z,95680.59
2018-12-07T00:27:36.735Z,95673.41
2018-12-07T00:30:03.384Z,95678.20
2018-12-07T00:32:30.037Z,95672.49
2018-12-07T00:34:56.770Z,95668.59
2018-12-07T00:37:23.329Z,95670.86
2018-12-07T00:39:50.035Z,95664.42
2018-12-07T00:42:16.684Z,95657.95
2018-12-07T00:44:43.324Z,95663.39
2018-12-07T00:47:09.978Z,95661.00
2018-12-07T00:49:36.619Z,95659.14
2018-12-07T00:52:04.025Z,95661.69
2018-12-07T00:54:30.664Z,95659.70
2018-12-07T00:56:57.318Z,95657.41
2018-12-07T00:59:23.953Z,95656.77
2018-12-07T01:01:50.661Z,95653.61
2018-12-07T01:04:17.358Z,95655.74
2018-12-07T01:06:43.966Z,95653.72
2018-12-07T01:09:10.682Z,95653.08
2018-12-07T01:11:40.157Z,95662.44
2018-12-07T01:14:06.849Z,95648.55
2018-12-07T01:16:33.498Z,95651.93
2018-12-07T01:19:00.211Z,95654.59
2018-12-07T01:21:26.889Z,95658.63
2018-12-07T01:23:53.545Z,95658.63
2018-12-07T01:26:20.249Z,95662.03
2018-12-07T01:28:46.886Z,95658.49
2018-12-07T01:31:13.535Z,95657.86
2018-12-07T01:33:40.186Z,95662.03
2018-12-07T01:36:06.830Z,95655.10
2018-12-07T01:38:33.536Z,95660.56
2018-12-07T01:41:00.177Z,95659.70
2018-12-07T01:43:26.824Z,95659.79
2018-12-07T01:45:53.467Z,95658.78
2018-12-07T01:48:21.322Z,95664.73
2018-12-07T01:50:47.983Z,95662.44
2018-12-07T01:53:14.706Z,95662.19
2018-12-07T01:55:41.360Z,95667.60
2018-12-07T01:58:08.001Z,95667.24
2018-12-07T02:00:34.705Z,95660.53
2018-12-07T02:03:02.387Z,95667.22
2018-12-07T02:05:29.125Z,95666.71
2018-12-07T02:07:55.765Z,95669.38
2018-12-07T02:10:22.412Z,95670.36
2018-12-07T02:12:49.123Z,95664.30
2018-12-07T02:15:15.760Z,95667.95
2018-12-07T02:17:42.425Z,95663.05
2018-12-07T02:20:09.070Z,95655.72
2018-12-07T02:22:35.843Z,95650.14
2018-12-07T02:25:02.478Z,95646.52
2018-12-07T02:27:29.119Z,95642.39
2018-12-07T02:29:55.766Z,95638.97
2018-12-07T02:32:22.423Z,95641.51
2018-12-07T02:34:49.067Z,95645.28
2018-12-07T02:37:15.856Z,95641.25
2018-12-07T02:39:42.514Z,95638.85
2018-12-07T02:42:09.160Z,95644.38
2018-12-07T02:44:35.800Z,95638.32
2018-12-07T02:47:02.495Z,95633.15
2018-12-07T02:49:29.137Z,95631.25
2018-12-07T02:51:55.785Z,95639.20
2018-12-07T02:54:22.434Z,95636.30
2018-12-07T02:56:49.125Z,95639.19
2018-12-07T02:59:15.812Z,95649.94
2018-12-07T03:01:42.459Z,95644.77
2018-12-07T03:04:09.248Z,95649.66
2018-12-07T03:06:35.901Z,95658.64
2018-12-07T03:09:02.605Z,95657.36
2018-12-07T03:11:29.261Z,95662.56
2018-12-07T03:13:55.969Z,95655.50
2018-12-07T03:16:22.612Z,95657.02
2018-12-07T03:18:49.260Z,95661.94
2018-12-07T03:21:15.908Z,95671.95
2018-12-07T03:23:42.563Z,95662.23
2018-12-07T03:26:09.218Z,95671.56
2018-12-07T03:28:35.860Z,95673.47
2018-12-07T03:31:02.564Z,95674.47
2018-12-07T03:33:29.205Z,95673.70
2018-12-07T03:35:55.895Z,95663.73
2018-12-07T03:38:22.555Z,95667.64
2018-12-07T03:40:49.210Z,95667.52
2018-12-07T03:43:15.848Z,95658.78
2018-12-07T03:45:43.844Z,95660.29
2018-12-07T03:48:09.202Z,95664.84
2018-12-07T03:50:35.900Z,95667.23
2018-12-07T03:53:02.541Z,95659.27
2018-12-07T03:55:29.225Z,95661.44
2018-12-07T03:57:55.875Z,95659.28
2018-12-07T04:00:22.525Z,95660.81
2018-12-07T04:02:49.259Z,95664.23
2018-12-07T04:05:15.879Z,95672.69
2018-12-07T04:07:42.600Z,95672.19
2018-12-07T04:10:09.266Z,95674.11
2018-12-07T04:12:35.918Z,95669.89
2018-12-07T04:15:02.626Z,95668.12
2018-12-07T04:17:29.314Z,95670.30
2018-12-07T04:19:55.960Z,95673.20
2018-12-07T04:22:22.671Z,95673.31
2018-12-07T04:24:49.440Z,95674.84
2018-12-07T04:27:16.127Z,95681.03
2018-12-07T04:29:42.834Z,95687.97
2018-12-07T04:32:09.482Z,95673.84
2018-12-07T04:34:36.170Z,95669.28
2018-12-07T04:37:02.808Z,95667.12
2018-12-07T04:39:29.470Z,95665.75
2018-12-07T04:41:56.123Z,95657.41
2018-12-07T04:44:22.818Z,95670.27
2018-12-07T04:46:49.453Z,95671.29
2018-12-07T04:49:16.104Z,95662.97
2018-12-07T04:51:42.813Z,95667.78
2018-12-07T04:54:09.513Z,95665.38
2018-12-07T04:56:36.158Z,95662.95
2018-12-07T04:59:02.808Z,95665.89
2018-12-07T05:01:29.461Z,95661.05
2018-12-07T05:03:56.109Z,95656.15
2018-12-07T05:06:22.755Z,95666.78
2018-12-07T05:08:49.457Z,95665.95
2018-12-07T05:11:16.099Z,95662.40
2018-12-07T05:13:42.746Z,95670.65
2018-12-07T05:16:09.441Z,95670.53
2018-12-07T05:18:36.127Z,95680.64
2018-12-07T05:21:02.821Z,95676.59
2018-12-07T05:23:29.461Z,95685.92
2018-12-07T05:25:56.218Z,95683.25
2018-12-07T05:28:22.921Z,95688.95
2018-12-07T05:30:49.562Z,95696.04
2018-12-07T05:33:16.225Z,95683.66
2018-12-07T05:35:42.876Z,95691.57
2018-12-07T05:38:09.571Z,95693.39
2018-12-07T05:40:36.289Z,95688.34
2018-12-07T05:43:02.931Z,95685.05
2018-12-07T05:45:29.627Z,95688.06
2018-12-07T05:47:56.287Z,95687.30
2018-12-07T05:50:22.927Z,95689.43
2018-12-07T05:52:49.585Z,95699.82
2018-12-07T05:55:16.237Z,95698.95
2018-12-07T05:57:42.879Z,95697.17
2018-12-07T06:00:09.544Z,95701.34
2018-12-07T06:02:36.203Z,95707.80
2018-12-07T06:05:02.896Z,95698.17
2018-12-07T06:07:29.546Z,95702.96
2018-12-07T06:09:56.198Z,95708.78
2018-12-07T06:12:22.843Z,95709.65
2018-12-07T06:14:49.542Z,95706.38
2018-12-07T06:17:16.181Z,95710.13
2018-12-07T06:19:42.842Z,95714.69
2018-12-07T06:22:09.533Z,95718.06
2018-12-07T06:24:36.230Z,95726.09
2018-12-07T06:27:02.915Z,95725.85
2018-12-07T06:29:29.607Z,95725.72
2018-12-07T06:31:56.255Z,95719.39
2018-12-07T06:34:22.910Z,95722.17
2018-12-07T06:36:49.666Z,95719.91
2018-12-07T06:39:16.526Z,95727.36
2018-12-07T06:41:43.148Z,95722.73
2018-12-07T06:44:09.877Z,95717.67
2018-12-07T06:46:36.527Z,95716.48
2018-12-07T06:49:03.231Z,95707.91
2018-12-07T06:51:29.931Z,95703.23
2018-12-07T06:53:57.140Z,95706.39
2018-12-07T06:56:23.847Z,95697.16
2018-12-07T06:58:50.500Z,95695.78
2018-12-07T07:01:17.158Z,95697.00
2018-12-07T07:03:43.820Z,95703.18
2018-12-07T07:06:10.488Z,95700.80
2018-12-07T07:08:37.270Z,95715.00
2018-12-07T07:11:03.906Z,95721.95
2018-12-07T07:13:30.571Z,95719.42
2018-12-07T07:15:57.237Z,95732.06
2018-12-07T07:18:23.924Z,95740.56
2018-12-07T07:20:50.587Z,95744.23
2018-12-07T07:23:17.246Z,95736.06
2018-12-07T07:25:43.945Z,95735.45
2018-12-07T07:28:10.675Z,95731.38
2018-12-07T07:30:37.322Z,95732.42
2018-12-07T07:33:03.973Z,95734.23
2018-12-07T07:35:30.677Z,95728.93
2018-12-07T07:37:57.319Z,95728.77
2018-12-07T07:40:23.988Z,95711.57
2018-12-07T07:42:50.666Z,95713.89
2018-12-07T07:45:17.453Z,95709.51
2018-12-07T07:47:44.159Z,95701.23
2018-12-07T07:50:10.828Z,95704.63
2018-12-07T07:52:37.567Z,95708.04
2018-12-07T07:55:05.254Z,95689.41
2018-12-07T07:57:31.938Z,95682.27
2018-12-07T07:59:58.652Z,95682.59
2018-12-07T08:02:25.340Z,95686.33
2018-12-07T08:04:51.992Z,95680.83
2018-12-07T08:07:18.644Z,95682.48
2018-12-07T08:09:45.874Z,95678.55
2018-12-07T08:12:12.536Z,95672.09
2018-12-07T08:14:40.206Z,95661.09
2018-12-07T08:17:06.881Z,95655.08
2018-12-07T08:19:33.529Z,95649.51
2018-12-07T08:22:00.217Z,95638.36
2018-12-07T08:24:26.923Z,95642.20
2018-12-07T08:26:53.571Z,95630.29
2018-12-07T08:29:20.227Z,95629.91
2018-12-07T08:31:46.870Z,95633.27
2018-12-07T08:34:13.530Z,95630.52
2018-12-07T08:36:40.178Z,95630.03
2018-12-07T08:39:06.849Z,95645.98
2018-12-07T08:41:33.596Z,95638.56
2018-12-07T08:44:00.301Z,95637.83
2018-12-07T08:46:26.957Z,95634.17
2018-12-07T08:48:53.639Z,95632.48
2018-12-07T08:51:20.389Z,95632.16
2018-12-07T08:53:47.256Z,95632.77
2018-12-07T08:56:13.914Z,95632.41
2018-12-07T08:58:40.644Z,95638.65
2018-12-07T09:01:07.429Z,95629.92
2018-12-07T09:03:34.171Z,95625.43
2018-12-07T09:06:00.885Z,95617.53
2018-12-07T09:08:27.601Z,95614.78
2018-12-07T09:10:56.437Z,95615.67
2018-12-07T09:13:23.121Z,95616.73
2018-12-07T09:15:49.771Z,95601.27
2018-12-07T09:18:16.468Z,95592.84
2018-12-07T09:20:43.184Z,95583.92
2018-12-07T09:23:09.861Z,95582.41
2018-12-07T09:25:36.515Z,95580.87
2018-12-07T09:28:03.172Z,95582.11
2018-12-07T09:30:29.867Z,95575.11
2018-12-07T09:32:56.578Z,95560.70
2018-12-07T09:35:23.338Z,95563.24
2018-12-07T09:37:49.951Z,95570.83
2018-12-07T09:40:16.656Z,95551.95
2018-12-07T09:42:43.430Z,95560.55
2018-12-07T09:45:10.125Z,95559.86
2018-12-07T09:47:36.833Z,95558.88
2018-12-07T09:50:03.479Z,95551.55
2018-12-07T09:52:30.185Z,95553.02
2018-12-07T09:54:56.827Z,95548.08
2018-12-07T09:57:23.479Z,95543.02
2018-12-07T09:59:50.137Z,95531.96
2018-12-07T10:02:16.941Z,95524.57
2018-12-07T10:04:43.643Z,95529.43
2018-12-07T10:07:10.284Z,95529.67
2018-12-07T10:09:36.938Z,95515.91
2018-12-07T10:12:03.638Z,95509.38
2018-12-07T10:14:30.348Z,95499.58
2018-12-07T10:16:57.187Z,95497.75
2018-12-07T10:19:23.856Z,95495.06
2018-12-07T10:21:50.587Z,95493.12
2018-12-07T10:24:17.177Z,95491.77
2018-12-07T10:26:43.873Z,95491.30
2018-12-07T10:29:10.526Z,95481.77
2018-12-07T10:31:37.179Z,95474.13
2018-12-07T10:34:03.949Z,95477.84
2018-12-07T10:36:30.595Z,95479.15
2018-12-07T10:38:57.291Z,95469.95
2018-12-07T10:41:23.926Z,95492.32
2018-12-07T10:43:50.621Z,95473.03
2018-12-07T10:46:17.278Z,95478.01
2018-12-07T10:48:43.975Z,95477.41
2018-12-07T10:51:10.672Z,95478.77
2018-12-07T10:53:37.343Z,95487.59
2018-12-07T10:56:05.229Z,95478.22
2018-12-07T10:58:30.657Z,95473.44
2018-12-07T11:00:57.383Z,95472.63
2018-12-07T11:03:26.266Z,95463.06
2018-12-07T11:05:53.007Z,95467.28
2018-12-07T11:08:19.750Z,95457.32
2018-12-07T11:10:46.392Z,95462.26
2018-12-07T11:13:13.113Z,95456.56
2018-12-07T11:15:39.785Z,95456.13
2018-12-07T11:18:06.436Z,95453.05
2018-12-07T11:20:33.120Z,95445.41
2018-12-07T11:23:00.259Z,95441.02
2018-12-07T11:25:26.984Z,95430.97
2018-12-07T11:27:53.652Z,95429.64
2018-12-07T11:30:20.313Z,95424.78
2018-12-07T11:32:48.066Z,95415.84
2018-12-07T11:35:17.566Z,95395.44
2018-12-07T11:37:44.202Z,95385.41
2018-12-07T11:40:10.911Z,95389.70
2018-12-07T11:42:37.568Z,95380.27
2018-12-07T11:45:04.214Z,95379.21
2018-12-07T11:47:30.866Z,95375.08
2018-12-07T11:49:57.585Z,95373.38
2018-12-07T11:52:27.808Z,95377.94
2018-12-07T11:54:54.513Z,95378.48
2018-12-07T11:57:22.330Z,95374.00
2018-12-07T11:59:49.051Z,95374.95
2018-12-07T12:02:15.768Z,95368.05
2018-12-07T12:04:42.426Z,95374.09
2018-12-07T12:07:09.106Z,95370.66
2018-12-07T12:09:35.747Z,95379.41
2018-12-07T12:12:02.422Z,95378.20
2018-12-07T12:14:30.308Z,95391.39
2018-12-07T12:16:56.959Z,95385.73
2018-12-07T12:19:24.730Z,95394.12
2018-12-07T12:21:51.384Z,95394.08
2018-12-07T12:24:18.089Z,95374.14
2018-12-07T12:26:44.833Z,95375.53
2018-12-07T12:29:11.470Z,95367.83
2018-12-07T12:31:40.272Z,95356.27
2018-12-07T12:34:09.038Z,95367.78
2018-12-07T12:36:37.032Z,95362.61
2018-12-07T12:39:03.868Z,95356.52
2018-12-07T12:41:30.918Z,95355.64
2018-12-07T12:43:57.655Z,95358.05
2018-12-07T12:46:24.494Z,95348.46
2018-12-07T12:48:51.278Z,95355.66
2018-12-07T12:51:18.083Z,95358.89
2018-12-07T12:53:44.773Z,95362.28
2018-12-07T12:56:14.130Z,95353.87
2018-12-07T12:58:43.546Z,95367.56
2018-12-07T13:01:10.288Z,95364.14
2018-12-07T13:03:36.958Z,95365.19
2018-12-07T13:06:03.603Z,95369.13
2018-12-07T13:08:30.357Z,95368.05
2018-12-07T13:10:57.053Z,95367.03
2018-12-07T13:13:23.694Z,95347.10
2018-12-07T13:15:50.448Z,95350.51
2018-12-07T13:18:17.142Z,95365.04
2018-12-07T13:20:43.840Z,95369.22
2018-12-07T13:23:10.538Z,95370.66
2018-12-07T13:25:37.219Z,95372.55
2018-12-07T13:28:03.983Z,95368.74
2018-12-07T13:30:30.631Z,95366.65
2018-12-07T13:32:57.355Z,95366.67
2018-12-07T13:35:24.016Z,95354.13
2018-12-07T13:37:51.040Z,95364.62
2018-12-07T13:40:17.975Z,95365.78
2018-12-07T13:42:44.637Z,95360.06
2018-12-07T13:45:11.531Z,95361.01
2018-12-07T13:47:38.113Z,95362.47
2018-12-07T13:50:05.819Z,95362.84
2018-12-07T13:52:32.609Z,95372.06
2018-12-07T13:54:59.243Z,95362.92
2018-12-07T13:57:25.984Z,95355.33
2018-12-07T13:59:54.154Z,95352.16
2018-12-07T14:02:19.436Z,95345.08
2018-12-07T14:04:46.111Z,95340.38
2018-12-07T14:07:12.949Z,95338.73
2018-12-07T14:09:39.470Z,95338.91
2018-12-07T14:12:06.244Z,95335.23
2018-12-07T14:14:32.939Z,95336.63
2018-12-07T14:17:01.221Z,95318.75
2018-12-07T14:19:27.898Z,95322.27
2018-12-07T14:21:54.547Z,95318.58
2018-12-07T14:24:21.172Z,95317.35
2018-12-07T14:26:47.883Z,95319.38
2018-12-07T14:29:14.752Z,95315.77
2018-12-07T14:31:41.411Z,95309.81
2018-12-07T14:34:08.221Z,95312.80
2018-12-07T14:36:34.984Z,95309.80
2018-12-07T14:39:01.612Z,95305.98
2018-12-07T14:41:28.533Z,95305.66
2018-12-07T14:43:55.020Z,95305.66
2018-12-07T14:46:21.672Z,95307.77
2018-12-07T14:48:48.324Z,95299.55
2018-12-07T14:51:15.074Z,95305.59
2018-12-07T14:53:41.732Z,95293.81
2018-12-07T14:56:08.455Z,95294.64
2018-12-07T14:58:35.247Z,95297.00
2018-12-07T15:01:01.979Z,95292.80
2018-12-07T15:03:28.889Z,95294.99
2018-12-07T15:05:55.349Z,95291.73
2018-12-07T15:08:22.058Z,95289.38
2018-12-07T15:10:48.861Z,95270.39
2018-12-07T15:13:15.483Z,95268.10
2018-12-07T15:15:41.992Z,95280.34
2018-12-07T15:18:09.962Z,95282.78
2018-12-07T15:20:36.524Z,95277.13
2018-12-07T15:23:03.211Z,95290.33
2018-12-07T15:25:29.880Z,95283.75
2018-12-07T15:27:56.564Z,95288.14
2018-12-07T15:30:23.463Z,95280.95
2018-12-07T15:32:49.990Z,95282.36
2018-12-07T15:35:16.828Z,95286.59
2018-12-07T15:37:43.406Z,95295.67
2018-12-07T15:40:10.049Z,95294.34
2018-12-07T15:42:36.856Z,95302.50
2018-12-07T15:45:03.442Z,95307.97
2018-12-07T15:47:30.333Z,95307.62
2018-12-07T15:49:56.966Z,95312.65
2018-12-07T15:52:23.744Z,95311.52
2018-12-07T15:54:50.454Z,95309.97
2018-12-07T15:57:17.088Z,95312.61
2018-12-07T15:59:44.219Z,95305.16
2018-12-07T16:02:10.960Z,95310.47
2018-12-07T16:04:38.943Z,95321.86
2018-12-07T16:07:05.679Z,95319.53
2018-12-07T16:09:32.926Z,95323.41
2018-12-07T16:11:59.750Z,95322.91
2018-12-07T16:14:26.349Z,95325.11
2018-12-07T16:16:52.922Z,95321.77
2018-12-07T16:19:19.679Z,95331.56
2018-12-07T16:21:46.556Z,95324.30
2018-12-07T16:24:13.389Z,95319.75
2018-12-07T16:26:39.899Z,95315.49
2018-12-07T16:29:06.803Z,95314.86
2018-12-07T16:31:33.544Z,95317.27
2018-12-07T16:34:00.323Z,95301.79
2018-12-07T16:36:27.256Z,95303.66
2018-12-07T16:38:53.886Z,95300.82
2018-12-07T16:41:20.645Z,95303.12
2018-12-07T16:43:47.190Z,95295.03
2018-12-07T16:46:13.936Z,95284.05
2018-12-07T16:48:40.506Z,95274.20
2018-12-07T16:51:07.220Z,95282.27
2018-12-07T16:53:33.907Z,95286.78
2018-12-07T16:56:00.666Z,95287.13
2018-12-07T16:58:27.287Z,95277.92
2018-12-07T17:00:54.014Z,95284.25
2018-12-07T17:03:20.552Z,95288.56
2018-12-07T17:05:47.619Z,95289.95
2018-12-07T17:08:14.104Z,95289.66
2018-12-07T17:10:40.718Z,95284.84
2018-12-07T17:13:07.243Z,95284.55
2018-12-07T17:15:34.121Z,95288.61
2018-12-07T17:18:00.685Z,95279.56
2018-12-07T17:20:27.480Z,95288.64
2018-12-07T17:22:54.015Z,95279.91
2018-12-07T17:25:20.558Z,95287.55
2018-12-07T17:27:47.458Z,95286.52
2018-12-07T17:30:13.920Z,95275.02
2018-12-07T17:32:40.599Z,95285.86
2018-12-07T17:35:07.400Z,95278.05
2018-12-07T17:37:34.983Z,95274.77
2018-12-07T17:40:01.604Z,95275.06
2018-12-07T17:42:29.757Z,95269.83
2018-12-07T17:44:54.869Z,95272.33
2018-12-07T17:47:21.631Z,95272.28
2018-12-07T17:49:48.375Z,95264.91
2018-12-07T17:52:14.876Z,95269.16
2018-12-07T17:54:41.473Z,95278.03
2018-12-07T17:57:08.257Z,95265.63
2018-12-07T17:59:34.852Z,95265.80
2018-12-07T18:02:01.434Z,95265.45
2018-12-07T18:04:28.082Z,95263.81
2018-12-07T18:06:54.959Z,95258.15
2018-12-07T18:09:21.532Z,95260.14
2018-12-07T18:11:48.294Z,95247.38
2018-12-07T18:14:14.971Z,95254.41
2018-12-07T18:16:41.899Z,95264.19
2018-12-07T18:19:08.676Z,95254.67
2018-12-07T18:21:35.162Z,95254.58
2018-12-07T18:24:01.792Z,95250.20
2018-12-07T18:26:28.809Z,95246.91
2018-12-07T18:28:55.379Z,95247.00
2018-12-07T18:31:22.071Z,95247.23
2018-12-07T18:33:49.000Z,95247.28
2018-12-07T18:36:15.670Z,95250.16
2018-12-07T18:38:42.466Z,95241.97
2018-12-07T18:41:09.275Z,95238.65
2018-12-07T18:43:35.760Z,95232.41
2018-12-07T18:46:02.431Z,95236.16
2018-12-07T18:48:29.453Z,95239.83
2018-12-07T18:50:55.935Z,95241.12
2018-12-07T18:53:22.478Z,95223.17
2018-12-07T18:55:49.064Z,95228.36
2018-12-07T18:58:15.699Z,95229.20
2018-12-07T19:00:42.452Z,95226.09
2018-12-07T19:03:09.197Z,95227.39
2018-12-07T19:05:35.701Z,95226.34
2018-12-07T19:08:02.381Z,95223.34
2018-12-07T19:10:29.041Z,95233.34
2018-12-07T19:12:55.615Z,95221.53
2018-12-07T19:15:22.254Z,95226.52
2018-12-07T19:17:49.044Z,95219.44
2018-12-07T19:20:15.723Z,95236.51
2018-12-07T19:22:42.360Z,95231.95
2018-12-07T19:25:08.909Z,95231.28
2018-12-07T19:27:35.614Z,95233.72
2018-12-07T19:30:02.389Z,95232.08
2018-12-07T19:32:29.124Z,95229.52
2018-12-07T19:34:55.728Z,95230.27
2018-12-07T19:37:22.368Z,95210.11
2018-12-07T19:39:48.939Z,95217.80
2018-12-07T19:42:15.905Z,95217.38
2018-12-07T19:44:42.444Z,95216.88
2018-12-07T19:47:09.047Z,95220.79
2018-12-07T19:49:35.773Z,95213.72
2018-12-07T19:52:02.332Z,95207.25
2018-12-07T19:54:29.139Z,95210.38
2018-12-07T19:56:55.726Z,95215.01
2018-12-07T19:59:22.429Z,95211.48
2018-12-07T20:01:49.137Z,95213.55
2018-12-07T20:04:15.773Z,95206.72
2018-12-07T20:06:42.444Z,95195.44
2018-12-07T20:09:09.102Z,95199.77
2018-12-07T20:11:36.102Z,95197.28
2018-12-07T20:14:02.373Z,95179.05
2018-12-07T20:16:29.365Z,95182.03
2018-12-07T20:18:55.724Z,95185.07
2018-12-07T20:21:22.536Z,95186.36
2018-12-07T20:23:49.097Z,95182.13
2018-12-07T20:26:15.789Z,95177.48
2018-12-07T20:28:42.544Z,95171.84
2018-12-07T20:31:09.417Z,95169.48
2018-12-07T20:33:36.285Z,95172.22
2018-12-07T20:36:02.703Z,95171.96
2018-12-07T20:38:29.558Z,95164.22
2018-12-07T20:40:56.392Z,95159.06
2018-12-07T20:43:23.036Z,95147.48
2018-12-07T20:45:49.468Z,95147.36
2018-12-07T20:48:16.145Z,95138.59
2018-12-07T20:50:43.047Z,95143.95
2018-12-07T20:53:09.708Z,95144.52
2018-12-07T20:55:36.279Z,95148.38
2018-12-07T20:58:04.072Z,95150.83
2018-12-07T21:00:29.641Z,95142.59
2018-12-07T21:02:56.282Z,95148.43
2018-12-07T21:05:22.963Z,95141.31
2018-12-07T21:07:49.701Z,95133.53
2018-12-07T21:10:16.348Z,95133.98
2018-12-07T21:12:45.160Z,95134.53
2018-12-07T21:15:11.760Z,95131.46
2018-12-07T21:17:38.644Z,95132.64
2018-12-07T21:20:05.200Z,95131.42
2018-12-07T21:22:32.006Z,95132.14
2018-12-07T21:24:58.346Z,95137.61
2018-12-07T21:27:25.128Z,95147.64
2018-12-07T21:29:51.826Z,95139.17
2018-12-07T21:32:18.404Z,95141.62
2018-12-07T21:34:45.059Z,95143.14
2018-12-07T21:37:12.017Z,95140.98
2018-12-07T21:39:38.440Z,95138.30
2018-12-07T21:42:05.058Z,95132.44
2018-12-07T21:44:31.858Z,95130.45
2018-12-07T21:46:58.430Z,95129.64
2018-12-07T21:49:25.058Z,95127.33
2018-12-07T21:51:52.035Z,95132.13
2018-12-07T21:54:18.575Z,95128.89
2018-12-07T21:56:45.283Z,95126.86
2018-12-07T21:59:12.036Z,95122.41
2018-12-07T22:01:38.950Z,95117.23
2018-12-07T22:04:05.911Z,95117.64
2018-12-07T22:06:32.424Z,95116.47
2018-12-07T22:08:58.977Z,95111.78
2018-12-07T22:11:25.880Z,95106.86
2018-12-07T22:13:52.574Z,95105.21
2018-12-07T22:16:18.920Z,95106.11
2018-12-07T22:18:45.656Z,95101.88
2018-12-07T22:21:12.561Z,95100.27
2018-12-07T22:23:39.019Z,95092.92
2018-12-07T22:26:05.605Z,95090.78
2018-12-07T22:28:32.541Z,95084.76
2018-12-07T22:30:59.021Z,95084.00
2018-12-07T22:33:25.978Z,95088.80
2018-12-07T22:35:52.560Z,95082.22
2018-12-07T22:38:19.258Z,95071.52
2018-12-07T22:40:45.833Z,95070.42
2018-12-07T22:43:12.781Z,95067.27
2018-12-07T22:45:39.112Z,95065.16
2018-12-07T22:48:05.924Z,95062.05
2018-12-07T22:50:32.438Z,95062.73
2018-12-07T22:52:59.073Z,95050.78
2018-12-07T22:55:25.709Z,95045.61
2018-12-07T22:57:52.360Z,95047.44
2018-12-07T23:00:19.074Z,95047.74
2018-12-07T23:02:45.709Z,95041.30
2018-12-07T23:05:12.568Z,95029.22
2018-12-07T23:07:39.205Z,95031.24
2018-12-07T23:10:05.862Z,95028.67
2018-12-07T23:12:32.503Z,95031.83
2018-12-07T23:14:59.207Z,95031.08
2018-12-07T23:17:25.848Z,95027.00
2018-12-07T23:19:52.548Z,95031.65
2018-12-07T23:22:19.194Z,95029.80
2018-12-07T23:24:48.902Z,95019.98
2018-12-07T23:27:15.618Z,95031.70
2018-12-07T23:29:42.260Z,95023.00
2018-12-07T23:32:08.897Z,95027.75
2018-12-07T23:34:35.557Z,95022.48
2018-12-07T23:37:02.212Z,95017.81
2018-12-07T23:39:28.922Z,95012.24
2018-12-07T23:41:55.560Z,95021.88
2018-12-07T23:44:22.264Z,95014.13
2018-12-07T23:46:48.904Z,95017.99
2018-12-07T23:49:15.546Z,95004.81
2018-12-07T23:51:42.183Z,95016.02
2018-12-07T23:54:08.896Z,94998.00
2018-12-07T23:56:35.544Z,95002.50
2018-12-07T23:59:02.182Z,94995.97
